Time;durP1;ratioP1;P1;durP2;ratioP2;P2;SDS_P1;SDS_P2;PMS_P1;PMS_P2;Temp;Humidity;BMP_temperature;BMP_pressure;BME280_temperature;BME280_humidity;BME280_pressure;Samples;Min_cycle;Max_cycle;Signal;HPM_P1;HPM_P2
2022/01/05 00:01:36;;;;;;;1.17;0.60;;;5.10;99.90;;;;;;5030756;28;20192;-43
2022/01/05 00:04:01;;;;;;;0.50;0.50;;;5.00;99.90;;;;;;5014217;28;20262;-43
2022/01/05 00:06:27;;;;;;;0.40;0.40;;;5.10;99.90;;;;;;5030765;28;20180;-44
2022/01/05 00:08:53;;;;;;;0.50;0.50;;;5.10;99.90;;;;;;5014147;28;20182;-43
2022/01/05 00:11:19;;;;;;;0.40;0.40;;;5.10;99.90;;;;;;5014278;28;20303;-43
2022/01/05 00:13:44;;;;;;;1.23;0.40;;;5.20;99.90;;;;;;5030339;28;20198;-43
2022/01/05 00:16:11;;;;;;;1.60;0.50;;;5.20;99.90;;;;;;5014501;28;20200;-43
2022/01/05 00:18:37;;;;;;;0.40;0.40;;;5.20;99.90;;;;;;5030409;28;20188;-43
2022/01/05 00:21:04;;;;;;;0.40;0.40;;;5.20;99.90;;;;;;5030310;28;20239;-43
2022/01/05 00:23:30;;;;;;;0.90;0.40;;;5.20;99.90;;;;;;5030359;28;20184;-43
2022/01/05 00:25:56;;;;;;;0.77;0.50;;;5.20;99.90;;;;;;5014132;28;20268;-43
2022/01/05 00:28:22;;;;;;;0.40;0.40;;;5.20;99.90;;;;;;5030247;28;20356;-43
2022/01/05 00:30:48;;;;;;;0.50;0.50;;;5.20;99.90;;;;;;5030200;28;20195;-43
2022/01/05 00:33:15;;;;;;;0.37;0.37;;;5.20;99.90;;;;;;5030223;28;20188;-43
2022/01/05 00:35:41;;;;;;;0.30;0.30;;;5.30;99.90;;;;;;5013491;28;20209;-43
2022/01/05 00:38:07;;;;;;;0.40;0.40;;;5.30;99.90;;;;;;5029976;28;20177;-44
2022/01/05 00:40:33;;;;;;;0.47;0.47;;;5.20;99.90;;;;;;5013652;28;20177;-43
2022/01/05 00:42:59;;;;;;;0.43;0.40;;;5.20;99.90;;;;;;5029935;28;20182;-43
2022/01/05 00:45:25;;;;;;;0.40;0.40;;;5.20;99.90;;;;;;5030200;28;20200;-43
2022/01/05 00:47:51;;;;;;;0.47;0.47;;;5.20;99.90;;;;;;5029879;28;20220;-43
2022/01/05 00:50:16;;;;;;;0.40;0.40;;;5.30;99.90;;;;;;5029721;28;20249;-43
2022/01/05 00:52:42;;;;;;;0.47;0.47;;;5.30;99.90;;;;;;5029745;28;20294;-43
2022/01/05 00:55:08;;;;;;;0.50;0.50;;;5.20;99.90;;;;;;5013873;28;20267;-43
2022/01/05 00:57:34;;;;;;;0.47;0.47;;;5.30;99.90;;;;;;5029692;28;20174;-43
2022/01/05 01:00:00;;;;;;;0.40;0.40;;;5.30;99.90;;;;;;5029651;28;20283;-43
2022/01/05 01:02:26;;;;;;;0.50;0.50;;;5.30;99.90;;;;;;5029977;28;20179;-43
2022/01/05 01:04:51;;;;;;;0.50;0.50;;;5.30;99.90;;;;;;5013249;28;20227;-43
2022/01/05 01:07:17;;;;;;;0.63;0.63;;;5.30;99.90;;;;;;5029634;28;20177;-43
2022/01/05 01:09:43;;;;;;;0.50;0.50;;;5.30;99.90;;;;;;5029451;28;20180;-42
2022/01/05 01:12:10;;;;;;;0.50;0.50;;;5.30;99.90;;;;;;5013016;28;20212;-43
2022/01/05 01:14:35;;;;;;;0.40;0.40;;;5.30;99.90;;;;;;5029596;28;20202;-42
2022/01/05 01:17:01;;;;;;;0.40;0.40;;;5.30;99.90;;;;;;5031171;28;20171;-43
2022/01/05 01:19:27;;;;;;;0.40;0.40;;;5.30;99.90;;;;;;5029440;28;20176;-43
2022/01/05 01:21:53;;;;;;;0.30;0.30;;;5.30;99.90;;;;;;5029708;28;20192;-43
2022/01/05 01:24:19;;;;;;;0.40;0.40;;;5.40;99.90;;;;;;5030332;28;20215;-40
2022/01/05 01:26:45;;;;;;;0.30;0.30;;;5.40;99.90;;;;;;5029369;28;20186;-40
2022/01/05 01:29:11;;;;;;;0.40;0.40;;;5.40;99.90;;;;;;5012966;28;20224;-43
2022/01/05 01:31:37;;;;;;;0.30;0.30;;;5.40;99.90;;;;;;5029420;28;20212;-43
2022/01/05 01:34:02;;;;;;;0.50;0.40;;;5.40;99.90;;;;;;5012988;28;20196;-44
2022/01/05 01:36:28;;;;;;;0.40;0.40;;;5.40;99.90;;;;;;5029493;28;20206;-42
2022/01/05 01:38:54;;;;;;;1.03;0.50;;;5.40;99.90;;;;;;5029257;28;20184;-42
2022/01/05 01:41:20;;;;;;;0.50;0.50;;;5.40;99.90;;;;;;5012929;28;20237;-44
2022/01/05 01:43:46;;;;;;;0.87;0.60;;;5.40;99.90;;;;;;5029589;28;20212;-42
2022/01/05 01:46:12;;;;;;;0.50;0.50;;;5.40;99.90;;;;;;5029548;28;20188;-43
2022/01/05 01:48:37;;;;;;;1.07;0.70;;;5.40;99.90;;;;;;5012715;28;20181;-43
2022/01/05 01:51:04;;;;;;;0.80;0.60;;;5.40;99.90;;;;;;5029873;28;20693;-40
2022/01/05 01:53:30;;;;;;;0.60;0.57;;;5.40;99.90;;;;;;5029082;28;20188;-43
2022/01/05 01:55:58;;;;;;;0.80;0.60;;;5.40;99.90;;;;;;5030388;28;20252;-42
2022/01/05 01:58:30;;;;;;;0.87;0.60;;;5.40;99.90;;;;;;5030491;28;20236;-41
2022/01/05 02:00:56;;;;;;;0.80;0.70;;;5.40;99.90;;;;;;5011077;28;20190;-42
2022/01/05 02:03:22;;;;;;;0.63;0.60;;;5.50;99.90;;;;;;4992975;28;20178;-42
2022/01/05 02:05:48;;;;;;;0.60;0.40;;;5.40;99.90;;;;;;5026123;28;20180;-42
2022/01/05 02:08:14;;;;;;;0.47;0.47;;;5.50;99.90;;;;;;4992906;28;20205;-44
2022/01/05 02:10:41;;;;;;;0.53;0.50;;;5.50;99.90;;;;;;4993051;28;20186;-41
2022/01/05 02:13:07;;;;;;;0.50;0.50;;;5.50;99.90;;;;;;5025852;28;20671;-42
2022/01/05 02:15:33;;;;;;;0.40;0.40;;;5.50;99.90;;;;;;5009290;28;20206;-43
2022/01/05 02:20:29;;;;;;;0.63;0.40;;;5.50;99.90;;;;;;5014043;28;20182;-43
2022/01/05 02:22:56;;;;;;;0.33;0.33;;;5.60;99.90;;;;;;5012787;28;20181;-40
2022/01/05 02:25:22;;;;;;;1.33;0.50;;;5.60;99.90;;;;;;5014273;28;20213;-42
2022/01/05 02:27:51;;;;;;;0.33;0.33;;;5.60;99.90;;;;;;4996432;28;20208;-43
2022/01/05 02:30:22;;;;;;;0.60;0.40;;;5.60;99.90;;;;;;5022035;28;20280;-43
2022/01/05 02:32:49;;;;;;;0.30;0.30;;;5.50;99.90;;;;;;5012559;28;20213;-43
2022/01/05 02:35:15;;;;;;;0.40;0.40;;;5.60;99.90;;;;;;5012924;28;20195;-42
2022/01/05 02:37:47;;;;;;;0.30;0.30;;;5.50;99.90;;;;;;5012279;28;20196;-43
2022/01/05 02:40:16;;;;;;;0.33;0.33;;;5.60;99.90;;;;;;5012838;28;20183;-41
2022/01/05 02:42:42;;;;;;;0.67;0.23;;;5.60;99.90;;;;;;5012432;28;20186;-43
2022/01/05 02:45:10;;;;;;;0.30;0.30;;;5.60;99.90;;;;;;5012443;28;20204;-42
2022/01/05 02:47:37;;;;;;;0.37;0.33;;;5.60;99.90;;;;;;5045385;28;20182;-43
2022/01/05 02:50:05;;;;;;;0.33;0.33;;;5.60;99.90;;;;;;5012334;28;20195;-42
2022/01/05 02:52:32;;;;;;;0.30;0.30;;;5.50;99.90;;;;;;5012456;28;20218;-42
2022/01/05 02:54:58;;;;;;;1.50;0.50;;;5.50;99.90;;;;;;5012422;28;20206;-43
2022/01/05 02:57:24;;;;;;;0.40;0.40;;;5.50;99.90;;;;;;5012348;28;20185;-46
2022/01/05 02:59:49;;;;;;;0.40;0.40;;;5.50;99.90;;;;;;5020933;28;20565;-43
2022/01/05 03:02:15;;;;;;;0.30;0.30;;;5.50;99.90;;;;;;5015715;28;20188;-44
2022/01/05 03:04:41;;;;;;;0.27;0.27;;;5.50;99.90;;;;;;5031854;28;20204;-43
2022/01/05 03:07:08;;;;;;;0.43;0.37;;;5.50;99.90;;;;;;5015967;28;20283;-43
2022/01/05 03:09:34;;;;;;;0.57;0.30;;;5.50;99.90;;;;;;5014797;28;20247;-43
2022/01/05 03:12:01;;;;;;;0.50;0.30;;;5.40;99.90;;;;;;5015152;28;20207;-45
2022/01/05 03:14:26;;;;;;;0.57;0.40;;;5.40;99.90;;;;;;5032925;28;20194;-42
2022/01/05 03:16:53;;;;;;;0.60;0.60;;;5.40;99.90;;;;;;5014643;28;20233;-43
2022/01/05 03:19:19;;;;;;;0.93;0.73;;;5.40;99.90;;;;;;5030848;28;20269;-43
2022/01/05 03:21:45;;;;;;;1.03;0.40;;;5.30;99.90;;;;;;5015392;28;20275;-44
2022/01/05 03:24:11;;;;;;;0.40;0.40;;;5.30;99.90;;;;;;5015006;28;20224;-41
2022/01/05 03:26:37;;;;;;;2.43;0.40;;;5.30;99.90;;;;;;5031411;28;20176;-43
2022/01/05 03:29:02;;;;;;;0.50;0.40;;;5.20;99.90;;;;;;5031425;28;20263;-43
2022/01/05 03:31:28;;;;;;;0.53;0.40;;;5.20;99.90;;;;;;5015351;28;20207;-43
2022/01/05 03:33:54;;;;;;;0.37;0.37;;;5.20;99.90;;;;;;5031210;28;20240;-42
2022/01/05 03:36:20;;;;;;;0.60;0.60;;;5.20;99.90;;;;;;5015083;28;20183;-46
2022/01/05 03:38:46;;;;;;;0.57;0.57;;;5.10;99.90;;;;;;5014531;28;20186;-40
2022/01/05 03:41:12;;;;;;;0.43;0.43;;;5.10;99.90;;;;;;5031045;28;20196;-43
2022/01/05 03:43:38;;;;;;;3.37;1.40;;;5.00;99.90;;;;;;5030979;28;20216;-43
2022/01/05 03:46:04;;;;;;;0.50;0.50;;;5.00;99.90;;;;;;5014632;28;20181;-42
2022/01/05 03:48:30;;;;;;;0.30;0.30;;;4.90;99.90;;;;;;5014210;28;20183;-43
2022/01/05 03:50:56;;;;;;;0.40;0.40;;;4.90;99.90;;;;;;5014795;28;20203;-43
2022/01/05 03:53:22;;;;;;;0.93;0.43;;;4.90;99.90;;;;;;5014690;28;20182;-43
2022/01/05 03:55:48;;;;;;;0.23;0.17;;;4.90;99.90;;;;;;5014401;28;20219;-43
2022/01/05 03:58:14;;;;;;;1.37;0.50;;;4.90;99.90;;;;;;5030695;28;20242;-42
2022/01/05 04:00:43;;;;;;;0.27;0.27;;;4.80;99.90;;;;;;5014354;28;20189;-42
2022/01/05 04:03:09;;;;;;;1.03;0.60;;;4.80;99.90;;;;;;5014313;28;20182;-43
2022/01/05 04:05:35;;;;;;;0.37;0.37;;;4.80;99.90;;;;;;5030602;28;20230;-42
2022/01/05 04:08:01;;;;;;;0.30;0.30;;;4.80;99.90;;;;;;5014258;28;20183;-43
2022/01/05 04:10:27;;;;;;;0.57;0.20;;;4.80;99.90;;;;;;5014125;28;20182;-41
2022/01/05 04:12:54;;;;;;;0.30;0.30;;;4.70;99.90;;;;;;5013967;28;20202;-42
2022/01/05 04:15:20;;;;;;;0.20;0.20;;;4.70;99.90;;;;;;5013997;28;20198;-44
2022/01/05 04:17:46;;;;;;;0.63;0.30;;;4.70;99.90;;;;;;5013683;28;20179;-42
2022/01/05 04:20:14;;;;;;;0.23;0.23;;;4.70;99.90;;;;;;5014053;28;20189;-42
2022/01/05 04:22:40;;;;;;;0.40;0.30;;;4.60;99.90;;;;;;5013964;28;20194;-42
2022/01/05 04:25:07;;;;;;;0.50;0.20;;;4.60;99.90;;;;;;5013664;28;20207;-44
2022/01/05 04:27:33;;;;;;;0.30;0.30;;;4.60;99.90;;;;;;5030476;28;20224;-42
2022/01/05 04:29:59;;;;;;;0.23;0.23;;;4.60;99.90;;;;;;5029967;28;20261;-43
2022/01/05 04:32:25;;;;;;;0.20;0.20;;;4.60;99.90;;;;;;5030152;28;20264;-42
2022/01/05 04:34:51;;;;;;;0.30;0.30;;;4.60;99.90;;;;;;5013795;28;20610;-41
2022/01/05 04:37:18;;;;;;;0.30;0.30;;;4.50;99.90;;;;;;5030330;28;20186;-42
2022/01/05 04:39:44;;;;;;;0.30;0.30;;;4.50;99.90;;;;;;5030065;28;20179;-42
2022/01/05 04:42:10;;;;;;;0.30;0.30;;;4.50;99.90;;;;;;5029775;28;20233;-44
2022/01/05 04:44:35;;;;;;;0.20;0.20;;;4.50;99.90;;;;;;5029956;28;20202;-43
2022/01/05 04:47:01;;;;;;;0.30;0.30;;;4.50;99.90;;;;;;5030322;28;20190;-43
2022/01/05 04:49:27;;;;;;;0.20;0.20;;;4.50;99.90;;;;;;5012893;28;20265;-44
2022/01/05 04:51:53;;;;;;;0.30;0.30;;;4.50;99.90;;;;;;5013262;28;20326;-44
2022/01/05 04:54:19;;;;;;;0.30;0.30;;;4.50;99.90;;;;;;5013474;28;20194;-42
2022/01/05 04:56:45;;;;;;;0.30;0.30;;;4.50;99.90;;;;;;5013625;28;20214;-41
2022/01/05 04:59:11;;;;;;;0.40;0.40;;;4.50;99.90;;;;;;5012605;28;20178;-42
2022/01/05 05:01:37;;;;;;;0.40;0.40;;;4.50;99.90;;;;;;5029896;28;20214;-42
2022/01/05 05:04:03;;;;;;;0.40;0.40;;;4.50;99.90;;;;;;5029912;28;20199;-43
2022/01/05 05:06:29;;;;;;;0.80;0.80;;;4.50;99.90;;;;;;5013473;28;20190;-42
2022/01/05 05:08:54;;;;;;;0.40;0.40;;;4.50;99.90;;;;;;5012942;28;20187;-44
2022/01/05 05:11:20;;;;;;;0.40;0.40;;;4.40;99.90;;;;;;5013317;28;20214;-43
2022/01/05 05:13:46;;;;;;;0.37;0.37;;;4.50;99.90;;;;;;5013108;28;20209;-41
2022/01/05 05:16:12;;;;;;;0.43;0.43;;;4.40;99.90;;;;;;5013216;28;20265;-43
2022/01/05 05:18:38;;;;;;;0.40;0.40;;;4.40;99.90;;;;;;5013068;28;20214;-43
2022/01/05 05:21:04;;;;;;;0.40;0.40;;;4.40;99.90;;;;;;5029440;28;20181;-44
2022/01/05 05:23:29;;;;;;;0.70;0.60;;;4.40;99.90;;;;;;5013283;28;20182;-42
2022/01/05 05:25:55;;;;;;;0.30;0.30;;;4.40;99.90;;;;;;5030928;28;20182;-43
2022/01/05 05:28:21;;;;;;;0.30;0.30;;;4.40;99.90;;;;;;5029160;28;20186;-42
2022/01/05 05:30:47;;;;;;;0.50;0.50;;;4.40;99.90;;;;;;5029572;28;20190;-43
2022/01/05 05:33:13;;;;;;;0.23;0.23;;;4.40;99.90;;;;;;5030641;28;20207;-43
2022/01/05 05:35:41;;;;;;;0.50;0.40;;;4.50;99.90;;;;;;5012776;28;20199;-40
2022/01/05 05:38:08;;;;;;;0.40;0.40;;;4.50;99.90;;;;;;5012661;28;20221;-43
2022/01/05 05:40:34;;;;;;;1.10;0.50;;;4.50;99.90;;;;;;5012730;28;20210;-43
2022/01/05 05:43:00;;;;;;;0.57;0.40;;;4.50;99.90;;;;;;5029347;28;20251;-43
2022/01/05 05:45:27;;;;;;;0.97;0.37;;;4.50;99.90;;;;;;5012917;28;20211;-43
2022/01/05 05:47:53;;;;;;;0.57;0.57;;;4.50;99.90;;;;;;5012750;28;20258;-44
2022/01/05 05:50:21;;;;;;;1.23;0.50;;;4.60;99.90;;;;;;5029356;28;20178;-43
2022/01/05 05:52:47;;;;;;;0.60;0.60;;;4.60;99.90;;;;;;5012771;28;20671;-44
2022/01/05 05:55:13;;;;;;;0.73;0.73;;;4.60;99.90;;;;;;5016217;28;20252;-42
2022/01/05 05:57:38;;;;;;;1.17;1.07;;;4.60;99.90;;;;;;5032984;28;20175;-43
2022/01/05 06:00:06;;;;;;;0.90;0.90;;;4.60;99.90;;;;;;5016726;28;20212;-40
2022/01/05 06:02:33;;;;;;;1.23;0.90;;;4.60;99.90;;;;;;5033024;28;20195;-44
2022/01/05 06:04:59;;;;;;;1.20;1.10;;;4.60;99.90;;;;;;5033014;28;20276;-43
2022/01/05 06:07:26;;;;;;;2.33;1.00;;;4.60;99.90;;;;;;5032511;28;20206;-43
2022/01/05 06:09:51;;;;;;;0.63;0.63;;;4.60;99.90;;;;;;5032624;28;20180;-43
2022/01/05 06:12:17;;;;;;;1.70;0.80;;;4.60;99.90;;;;;;5032612;28;20243;-43
2022/01/05 06:14:43;;;;;;;0.70;0.70;;;4.50;99.90;;;;;;5016378;28;20194;-42
2022/01/05 06:17:09;;;;;;;0.87;0.80;;;4.50;99.90;;;;;;5033049;28;20777;-46
2022/01/05 06:19:36;;;;;;;1.00;0.90;;;4.50;99.90;;;;;;5015633;28;20203;-43
2022/01/05 06:22:02;;;;;;;0.60;0.60;;;4.50;99.90;;;;;;5032155;28;20192;-43
2022/01/05 06:24:28;;;;;;;0.83;0.77;;;4.50;99.90;;;;;;5032342;28;20206;-45
2022/01/05 06:26:54;;;;;;;0.60;0.60;;;4.50;99.90;;;;;;5035435;28;20176;-40
2022/01/05 06:29:21;;;;;;;1.10;1.00;;;4.50;99.90;;;;;;5029570;28;20167;-41
2022/01/05 06:31:47;;;;;;;1.10;1.00;;;4.50;99.90;;;;;;4997384;28;20229;-43
2022/01/05 06:34:13;;;;;;;0.70;0.70;;;4.50;99.90;;;;;;5012374;28;20195;-42
2022/01/05 06:36:39;;;;;;;1.27;1.03;;;4.50;99.90;;;;;;5012673;28;20179;-42
2022/01/05 06:39:05;;;;;;;0.97;0.97;;;4.40;99.90;;;;;;5028538;28;20192;-43
2022/01/05 06:41:31;;;;;;;0.90;0.80;;;4.40;99.90;;;;;;5012466;28;20217;-40
2022/01/05 06:43:57;;;;;;;0.83;0.83;;;4.40;99.90;;;;;;4996144;28;20293;-43
2022/01/05 06:46:23;;;;;;;1.63;1.20;;;4.40;99.90;;;;;;5013613;28;20176;-43
2022/01/05 06:48:49;;;;;;;0.93;0.90;;;4.30;99.90;;;;;;4995833;28;20194;-41
2022/01/05 06:51:14;;;;;;;1.60;1.03;;;4.30;99.90;;;;;;5028581;28;20199;-43
2022/01/05 06:53:41;;;;;;;3.83;2.10;;;4.20;99.90;;;;;;4995749;28;20179;-43
2022/01/05 06:56:06;;;;;;;1.37;1.00;;;4.20;99.90;;;;;;4996287;28;20183;-41
2022/01/05 06:58:33;;;;;;;2.43;1.20;;;4.20;99.90;;;;;;4996003;28;20182;-44
2022/01/05 07:01:01;;;;;;;3.07;2.10;;;4.10;99.90;;;;;;5030415;28;20187;-43
2022/01/05 07:03:27;;;;;;;2.27;1.60;;;4.10;99.90;;;;;;5031292;28;20600;-42
2022/01/05 07:05:53;;;;;;;1.60;1.40;;;4.10;99.90;;;;;;5031384;28;20178;-43
2022/01/05 07:08:19;;;;;;;1.63;1.53;;;4.00;99.90;;;;;;5031390;28;20179;-42
2022/01/05 07:10:45;;;;;;;3.30;1.90;;;4.10;99.90;;;;;;5033113;28;20217;-43
2022/01/05 07:13:10;;;;;;;1.50;1.40;;;4.00;99.90;;;;;;5031811;28;20293;-42
2022/01/05 07:15:36;;;;;;;2.40;1.77;;;4.00;99.90;;;;;;5031539;28;20568;-43
2022/01/05 07:18:03;;;;;;;1.17;1.10;;;4.10;99.90;;;;;;5032688;28;20233;-43
2022/01/05 07:20:28;;;;;;;1.10;1.00;;;4.10;99.90;;;;;;5015056;28;20289;-44
2022/01/05 07:22:54;;;;;;;1.13;1.00;;;4.00;99.90;;;;;;5031559;28;20270;-43
2022/01/05 07:25:20;;;;;;;1.10;0.90;;;4.00;99.90;;;;;;5031996;28;20225;-44
2022/01/05 07:27:46;;;;;;;1.07;1.07;;;4.00;99.90;;;;;;5032686;28;20209;-45
2022/01/05 07:30:12;;;;;;;0.70;0.70;;;3.90;99.90;;;;;;5031197;28;20309;-45
2022/01/05 07:32:39;;;;;;;1.97;0.90;;;4.00;99.90;;;;;;5014651;28;20210;-43
2022/01/05 07:35:05;;;;;;;1.77;0.90;;;3.90;99.90;;;;;;5015291;28;20199;-43
2022/01/05 07:37:31;;;;;;;2.17;0.90;;;3.90;99.90;;;;;;5014678;28;20183;-44
2022/01/05 07:39:57;;;;;;;1.10;0.90;;;3.90;99.90;;;;;;5031054;28;20185;-45
2022/01/05 07:42:23;;;;;;;1.13;0.80;;;3.70;99.90;;;;;;5014853;28;20226;-45
2022/01/05 07:44:50;;;;;;;1.83;1.00;;;3.70;99.90;;;;;;5014665;28;20203;-44
2022/01/05 07:47:16;;;;;;;2.73;1.40;;;3.50;99.90;;;;;;5014670;28;20210;-45
2022/01/05 07:49:41;;;;;;;1.63;1.20;;;3.50;99.90;;;;;;5013895;28;20209;-45
2022/01/05 07:52:08;;;;;;;1.30;1.13;;;3.50;99.90;;;;;;5014266;28;20210;-45
2022/01/05 07:54:34;;;;;;;2.57;1.30;;;3.50;99.90;;;;;;5032313;28;20293;-45
2022/01/05 07:57:00;;;;;;;1.93;1.30;;;3.50;99.90;;;;;;5032234;28;20178;-45
2022/01/05 07:59:26;;;;;;;2.37;1.60;;;3.50;99.90;;;;;;5013994;28;20182;-43
2022/01/05 08:01:51;;;;;;;2.00;1.50;;;3.50;99.90;;;;;;5013353;28;20567;-45
2022/01/05 08:04:19;;;;;;;5.13;1.10;;;3.50;99.90;;;;;;5030884;28;20206;-45
2022/01/05 08:06:44;;;;;;;2.27;1.70;;;3.50;99.90;;;;;;5029709;28;20182;-45
2022/01/05 08:09:10;;;;;;;3.10;1.60;;;3.50;99.90;;;;;;5031050;28;20194;-45
2022/01/05 08:11:37;;;;;;;3.33;1.83;;;3.50;99.90;;;;;;5030195;28;20249;-45
2022/01/05 08:14:02;;;;;;;3.80;1.70;;;3.50;99.90;;;;;;5030016;28;20290;-45
2022/01/05 08:16:28;;;;;;;2.13;1.37;;;3.50;99.90;;;;;;5029463;28;20269;-45
2022/01/05 08:18:54;;;;;;;3.10;1.43;;;3.50;99.90;;;;;;5029992;28;20179;-45
2022/01/05 08:21:21;;;;;;;5.60;1.40;;;3.50;99.90;;;;;;5013292;28;20175;-44
2022/01/05 08:23:48;;;;;;;2.33;1.07;;;3.50;99.90;;;;;;5016591;28;20209;-44
2022/01/05 08:26:15;;;;;;;1.87;1.10;;;3.40;99.90;;;;;;5012950;28;20193;-43
2022/01/05 08:28:41;;;;;;;2.00;1.20;;;3.50;99.90;;;;;;5033426;28;20722;-45
2022/01/05 08:31:06;;;;;;;4.37;1.30;;;3.50;99.90;;;;;;5029113;28;20277;-44
2022/01/05 08:33:34;;;;;;;1.70;1.00;;;3.50;99.90;;;;;;5031034;28;20262;-45
2022/01/05 08:36:01;;;;;;;1.50;1.30;;;3.50;99.90;;;;;;5015849;28;20171;-44
2022/01/05 08:38:27;;;;;;;3.87;1.77;;;3.50;99.90;;;;;;5014564;28;20209;-45
2022/01/05 08:40:53;;;;;;;1.87;1.10;;;3.60;99.90;;;;;;5031160;28;20191;-41
2022/01/05 08:43:20;;;;;;;3.83;1.33;;;3.50;99.90;;;;;;5030416;28;20182;-44
2022/01/05 08:45:47;;;;;;;2.43;1.50;;;3.50;99.90;;;;;;5031437;28;20265;-45
2022/01/05 08:48:14;;;;;;;2.33;1.20;;;3.60;99.90;;;;;;5014775;28;20182;-44
2022/01/05 08:50:41;;;;;;;4.00;1.70;;;3.60;99.90;;;;;;5031088;28;20213;-45
2022/01/05 08:53:08;;;;;;;3.47;1.50;;;3.60;99.90;;;;;;5013206;28;20199;-44
2022/01/05 08:55:37;;;;;;;2.57;1.40;;;3.50;99.90;;;;;;5014158;28;20281;-44
2022/01/05 08:58:04;;;;;;;4.27;1.73;;;3.50;99.90;;;;;;5031696;28;20209;-45
2022/01/05 09:00:32;;;;;;;8.30;1.93;;;3.40;99.90;;;;;;5029657;28;20248;-45
2022/01/05 09:02:58;;;;;;;3.10;1.50;;;3.40;99.90;;;;;;5012819;28;20209;-42
2022/01/05 09:05:24;;;;;;;3.73;1.50;;;3.40;99.90;;;;;;5030101;28;20621;-44
2022/01/05 09:07:50;;;;;;;3.03;1.30;;;3.50;99.90;;;;;;5030630;28;20178;-44
2022/01/05 09:10:16;;;;;;;3.67;1.77;;;3.50;99.90;;;;;;5029434;28;20224;-44
2022/01/05 09:12:42;;;;;;;3.53;1.40;;;3.50;99.90;;;;;;5013175;28;20560;-45
2022/01/05 09:15:09;;;;;;;3.50;1.40;;;3.50;99.90;;;;;;5029345;28;20232;-45
2022/01/05 09:17:38;;;;;;;4.20;1.50;;;3.60;99.90;;;;;;5027899;28;20210;-43
2022/01/05 09:20:10;;;;;;;3.33;1.43;;;3.60;99.90;;;;;;5029390;28;20185;-45
2022/01/05 09:22:39;;;;;;;5.60;2.23;;;3.70;99.90;;;;;;5030734;28;20197;-44
2022/01/05 09:25:08;;;;;;;4.60;1.50;;;3.80;99.90;;;;;;5028582;28;20268;-44
2022/01/05 09:27:37;;;;;;;3.80;1.90;;;3.90;99.90;;;;;;5029094;28;20286;-43
2022/01/05 09:30:08;;;;;;;4.23;1.90;;;3.90;99.90;;;;;;5014545;28;20186;-45
2022/01/05 09:32:35;;;;;;;5.13;1.73;;;4.00;99.90;;;;;;5037172;28;20202;-45
2022/01/05 09:35:01;;;;;;;6.23;1.40;;;4.10;99.90;;;;;;5015973;28;20290;-45
2022/01/05 09:37:32;;;;;;;4.27;1.27;;;4.10;99.90;;;;;;5032948;28;20178;-44
2022/01/05 09:42:43;;;;;;;2.80;1.60;;;4.30;99.90;;;;;;5032586;28;20182;-43
2022/01/05 09:45:15;;;;;;;2.97;1.80;;;4.40;99.90;;;;;;5032704;28;20200;-43
2022/01/05 09:48:12;;;;;;;3.87;1.80;;;4.40;99.90;;;;;;5032004;28;20202;-44
2022/01/05 09:51:01;;;;;;;4.00;1.90;;;4.50;99.90;;;;;;5007258;28;20191;-45
2022/01/05 09:53:31;;;;;;;8.27;2.30;;;4.60;99.90;;;;;;5015628;28;20206;-44
2022/01/05 09:55:58;;;;;;;3.63;1.60;;;4.70;99.90;;;;;;5046259;28;20266;-44
2022/01/05 09:58:25;;;;;;;3.83;1.67;;;4.60;99.90;;;;;;5032974;28;20175;-44
2022/01/05 10:00:52;;;;;;;9.07;1.57;;;4.60;99.90;;;;;;5043826;28;20185;-45
2022/01/05 10:03:22;;;;;;;3.43;1.93;;;4.60;99.90;;;;;;5003255;28;20345;-44
2022/01/05 10:05:49;;;;;;;5.20;1.47;;;4.60;99.90;;;;;;5032184;28;20194;-44
2022/01/05 10:08:16;;;;;;;4.13;1.77;;;4.60;99.90;;;;;;5032059;28;20174;-44
2022/01/05 10:10:42;;;;;;;7.13;1.70;;;4.50;99.90;;;;;;5016076;28;20201;-44
2022/01/05 10:13:09;;;;;;;4.87;1.50;;;4.50;99.90;;;;;;5032050;28;20233;-45
2022/01/05 10:15:36;;;;;;;3.47;1.67;;;4.50;99.90;;;;;;5015716;28;20191;-45
2022/01/05 10:18:10;;;;;;;2.13;1.33;;;4.50;99.90;;;;;;5011970;28;20175;-41
2022/01/05 10:20:37;;;;;;;4.53;2.00;;;4.40;99.90;;;;;;5040594;28;20239;-44
2022/01/05 10:23:03;;;;;;;7.93;1.87;;;4.30;99.90;;;;;;5023497;28;20178;-45
2022/01/05 10:25:31;;;;;;;4.67;1.47;;;4.30;99.90;;;;;;5039537;28;20213;-45
2022/01/05 10:28:02;;;;;;;6.33;1.60;;;4.30;99.90;;;;;;5037533;28;20182;-45
2022/01/05 10:30:37;;;;;;;8.70;1.60;;;4.40;99.90;;;;;;5034984;28;20733;-44
2022/01/05 10:33:06;;;;;;;4.53;1.77;;;4.50;99.90;;;;;;5040003;28;20256;-44
2022/01/05 10:35:33;;;;;;;5.13;1.37;;;4.50;99.90;;;;;;5037809;28;20277;-44
2022/01/05 10:38:07;;;;;;;5.50;1.40;;;4.40;99.90;;;;;;5039313;28;20189;-45
2022/01/05 10:40:34;;;;;;;7.00;1.60;;;4.20;99.90;;;;;;5022263;28;20235;-44
2022/01/05 10:43:10;;;;;;;7.90;1.97;;;4.00;99.90;;;;;;5021326;28;20270;-45
2022/01/05 10:45:47;;;;;;;9.80;1.80;;;3.80;99.90;;;;;;5037950;28;20213;-44
2022/01/05 10:48:18;;;;;;;4.40;1.80;;;3.60;99.90;;;;;;5022001;28;20196;-45
2022/01/05 10:50:46;;;;;;;4.20;1.37;;;3.60;99.90;;;;;;5037140;28;20186;-44
2022/01/05 10:53:19;;;;;;;4.33;1.77;;;3.70;99.90;;;;;;5039332;28;20296;-45
2022/01/05 10:55:47;;;;;;;5.07;1.60;;;3.80;99.90;;;;;;5039990;28;20229;-44
2022/01/05 10:58:17;;;;;;;4.23;1.70;;;3.80;99.90;;;;;;5020832;28;20548;-44
2022/01/05 11:00:52;;;;;;;8.47;2.00;;;3.90;99.90;;;;;;5037308;28;20186;-42
2022/01/05 11:03:31;;;;;;;5.53;1.70;;;4.00;99.90;;;;;;5020263;28;20174;-44
2022/01/05 11:06:13;;;;;;;6.40;1.60;;;4.00;99.90;;;;;;5014852;28;20218;-43
2022/01/05 11:08:55;;;;;;;4.37;1.70;;;4.20;99.90;;;;;;5030275;28;20637;-44
2022/01/05 11:11:42;;;;;;;8.43;1.90;;;4.20;99.90;;;;;;5033763;28;20194;-45
2022/01/05 11:14:18;;;;;;;4.50;1.50;;;4.20;99.90;;;;;;5033111;28;20679;-44
2022/01/05 11:16:50;;;;;;;5.97;1.73;;;4.30;99.90;;;;;;5031299;28;20196;-44
2022/01/05 11:19:16;;;;;;;4.77;1.80;;;4.30;99.90;;;;;;5031792;28;20650;-44
2022/01/05 11:22:00;;;;;;;5.27;1.73;;;4.40;99.90;;;;;;5031350;28;20221;-45
2022/01/05 11:24:29;;;;;;;6.57;1.40;;;4.30;99.90;;;;;;5017851;28;20206;-44
2022/01/05 11:26:55;;;;;;;4.47;1.53;;;4.30;99.90;;;;;;5033896;28;20274;-45
2022/01/05 11:29:22;;;;;;;11.63;1.90;;;4.30;99.90;;;;;;5013248;28;20187;-44
2022/01/05 11:31:48;;;;;;;5.67;1.60;;;4.20;99.90;;;;;;5036771;28;20206;-44
2022/01/05 11:34:14;;;;;;;5.10;1.90;;;4.20;99.90;;;;;;5022984;28;20273;-44
2022/01/05 11:36:42;;;;;;;5.83;1.97;;;4.20;99.90;;;;;;5018916;28;20656;-44
2022/01/05 11:39:08;;;;;;;4.67;1.77;;;4.30;99.90;;;;;;5036101;28;20178;-45
2022/01/05 11:41:39;;;;;;;5.57;3.13;;;4.20;99.90;;;;;;5040021;28;20186;-44
2022/01/05 11:44:06;;;;;;;4.60;2.27;;;4.10;99.90;;;;;;5038578;28;20197;-44
2022/01/05 11:46:32;;;;;;;5.60;1.63;;;4.20;99.90;;;;;;5040995;28;20660;-44
2022/01/05 11:49:07;;;;;;;8.87;1.80;;;4.30;99.90;;;;;;5020707;28;20274;-44
2022/01/05 11:51:42;;;;;;;7.87;2.00;;;4.30;99.90;;;;;;5051729;28;20262;-41
2022/01/05 11:54:20;;;;;;;10.80;2.50;;;4.30;99.90;;;;;;5037585;28;20189;-44
2022/01/05 11:56:48;;;;;;;6.10;1.80;;;4.40;99.90;;;;;;5039625;28;20254;-44
2022/01/05 11:59:41;;;;;;;7.83;1.87;;;4.30;99.90;;;;;;5031726;28;20182;-44
2022/01/05 12:02:14;;;;;;;8.57;1.93;;;4.10;99.90;;;;;;5027135;28;20202;-45
2022/01/05 12:04:53;;;;;;;8.33;1.90;;;4.10;99.90;;;;;;5029147;28;20198;-44
2022/01/05 12:07:45;;;;;;;7.47;2.23;;;4.10;99.90;;;;;;5031036;28;20181;-44
2022/01/05 12:10:25;;;;;;;8.37;1.73;;;4.10;99.90;;;;;;5014069;28;20175;-44
2022/01/05 12:13:02;;;;;;;5.87;1.70;;;4.10;99.90;;;;;;5030813;28;20655;-44
2022/01/05 12:15:56;;;;;;;5.57;1.50;;;4.00;99.90;;;;;;5053521;28;20266;-44
2022/01/05 12:18:30;;;;;;;4.83;1.70;;;3.80;99.90;;;;;;5011340;28;20185;-44
2022/01/05 12:20:57;;;;;;;6.23;1.80;;;3.80;99.90;;;;;;5013932;28;20178;-45
2022/01/05 12:23:25;;;;;;;6.97;2.13;;;3.80;99.90;;;;;;5032133;28;20179;-44
2022/01/05 12:26:07;;;;;;;8.07;2.30;;;3.80;99.90;;;;;;5041498;28;20194;-44
2022/01/05 12:28:48;;;;;;;4.63;1.60;;;3.90;99.90;;;;;;5036942;28;20183;-44
2022/01/05 12:31:14;;;;;;;5.93;1.43;;;3.90;99.90;;;;;;5016988;28;20209;-41
2022/01/05 12:33:49;;;;;;;6.17;1.40;;;3.80;99.90;;;;;;5026544;28;20221;-44
2022/01/05 12:36:44;;;;;;;9.80;1.90;;;3.80;99.90;;;;;;5043275;28;20241;-44
2022/01/05 12:39:10;;;;;;;4.27;1.20;;;3.80;99.90;;;;;;5016469;28;20187;-44
2022/01/05 12:41:41;;;;;;;6.07;1.70;;;3.70;99.90;;;;;;5043407;28;20186;-44
2022/01/05 12:44:16;;;;;;;4.20;1.43;;;3.70;99.90;;;;;;5040842;28;20228;-45
2022/01/05 12:46:49;;;;;;;8.00;2.07;;;3.70;99.90;;;;;;5034322;28;20193;-45
2022/01/05 12:49:27;;;;;;;3.73;1.80;;;3.80;99.90;;;;;;5011041;28;20179;-45
2022/01/05 12:52:05;;;;;;;4.03;1.50;;;3.90;99.90;;;;;;5041542;28;20214;-45
2022/01/05 12:54:42;;;;;;;4.43;1.80;;;4.00;99.90;;;;;;5031858;28;20198;-45
2022/01/05 12:57:11;;;;;;;6.97;2.50;;;3.90;99.90;;;;;;5021774;28;20178;-45
2022/01/05 12:59:41;;;;;;;5.47;1.90;;;3.80;99.90;;;;;;5027437;28;20270;-45
2022/01/05 13:02:28;;;;;;;7.77;2.00;;;3.90;99.90;;;;;;5039753;28;20198;-44
2022/01/05 13:04:57;;;;;;;8.17;1.80;;;4.00;99.90;;;;;;5022062;28;20213;-45
2022/01/05 13:07:25;;;;;;;5.77;2.40;;;4.10;99.90;;;;;;5029634;28;20248;-44